Time;durP1;ratioP1;P1;durP2;ratioP2;P2;SDS_P1;SDS_P2;PMS_P1;PMS_P2;Temp;Humidity;BMP_temperature;BMP_pressure;BME280_temperature;BME280_humidity;BME280_pressure;Samples;Min_cycle;Max_cycle;Signal;HPM_P1;HPM_P2
2021/10/19 00:00:08;;;;;;;36.33;24.85;;;;;;;;;;4985182;28;20055;-68
2021/10/19 00:02:36;;;;;;;40.45;25.98;;;;;;;;;;4984196;28;20054;-68
2021/10/19 00:05:02;;;;;;;35.08;25.13;;;;;;;;;;4982494;28;20157;-68
2021/10/19 00:07:29;;;;;;;34.47;24.60;;;;;;;;;;4985356;28;20495;-68
2021/10/19 00:09:55;;;;;;;35.25;25.40;;;;;;;;;;4986399;28;20120;-68
2021/10/19 00:12:21;;;;;;;35.78;24.52;;;;;;;;;;4984877;28;20058;-68
2021/10/19 00:14:47;;;;;;;38.60;25.15;;;;;;;;;;4983136;28;20054;-68
2021/10/19 00:17:13;;;;;;;37.00;26.38;;;;;;;;;;4987699;28;20043;-68
2021/10/19 00:19:39;;;;;;;36.05;24.17;;;;;;;;;;4987758;28;20056;-68
2021/10/19 00:22:06;;;;;;;35.13;24.98;;;;;;;;;;4984505;28;20101;-68
2021/10/19 00:24:32;;;;;;;35.08;25.02;;;;;;;;;;4988625;28;20046;-68
2021/10/19 00:26:59;;;;;;;34.85;24.85;;;;;;;;;;4986902;28;20060;-68
2021/10/19 00:29:25;;;;;;;37.17;23.90;;;;;;;;;;4972426;28;20124;-68
2021/10/19 00:31:52;;;;;;;35.92;24.30;;;;;;;;;;4983861;28;20116;-68
2021/10/19 00:34:18;;;;;;;36.47;26.38;;;;;;;;;;4981537;28;20070;-68
2021/10/19 00:36:45;;;;;;;36.50;24.67;;;;;;;;;;4980849;28;20582;-68
2021/10/19 00:39:11;;;;;;;36.45;24.38;;;;;;;;;;4984724;28;20411;-68
2021/10/19 00:41:37;;;;;;;38.50;26.13;;;;;;;;;;4979129;28;20039;-68
2021/10/19 00:44:04;;;;;;;35.28;25.08;;;;;;;;;;4975962;28;20073;-68
2021/10/19 00:46:30;;;;;;;36.05;25.15;;;;;;;;;;4982365;28;20046;-68
2021/10/19 00:48:56;;;;;;;33.30;23.13;;;;;;;;;;4985943;28;20058;-68
2021/10/19 00:51:23;;;;;;;34.35;23.90;;;;;;;;;;4986165;28;20125;-68
2021/10/19 00:53:49;;;;;;;35.00;24.30;;;;;;;;;;4995536;28;20050;-68
2021/10/19 00:56:15;;;;;;;33.33;25.10;;;;;;;;;;4985737;28;20057;-68
2021/10/19 00:58:42;;;;;;;35.35;25.70;;;;;;;;;;4986556;28;20468;-68
2021/10/19 01:01:08;;;;;;;37.28;24.85;;;;;;;;;;4973133;28;20132;-68
2021/10/19 01:03:35;;;;;;;33.50;24.15;;;;;;;;;;5001594;28;20097;-68
2021/10/19 01:06:02;;;;;;;37.60;25.15;;;;;;;;;;4987260;28;20136;-68
2021/10/19 01:08:29;;;;;;;35.00;24.52;;;;;;;;;;5001808;28;20049;-68
2021/10/19 01:10:56;;;;;;;35.83;23.88;;;;;;;;;;5000998;28;20061;-68
2021/10/19 01:13:22;;;;;;;36.92;24.55;;;;;;;;;;4989014;28;20049;-69
2021/10/19 01:15:48;;;;;;;33.83;24.58;;;;;;;;;;4990161;28;20057;-69
2021/10/19 01:18:16;;;;;;;35.58;24.75;;;;;;;;;;4991751;28;20402;-69
2021/10/19 01:20:43;;;;;;;36.67;26.13;;;;;;;;;;4989541;28;20397;-69
2021/10/19 01:23:10;;;;;;;36.15;26.23;;;;;;;;;;4989700;28;20045;-69
2021/10/19 01:25:37;;;;;;;37.60;25.85;;;;;;;;;;4986868;28;20042;-69
2021/10/19 01:28:05;;;;;;;35.30;25.73;;;;;;;;;;4989412;28;20069;-69
2021/10/19 01:30:31;;;;;;;36.47;26.55;;;;;;;;;;4995031;28;20057;-69
2021/10/19 01:32:58;;;;;;;39.38;26.55;;;;;;;;;;5004602;28;20133;-69
2021/10/19 01:35:31;;;;;;;36.65;26.10;;;;;;;;;;4993557;28;20099;-69
2021/10/19 01:37:57;;;;;;;38.33;27.08;;;;;;;;;;4993928;28;20042;-69
2021/10/19 01:40:23;;;;;;;39.28;26.88;;;;;;;;;;4994192;28;20045;-69
2021/10/19 01:42:49;;;;;;;40.95;26.60;;;;;;;;;;4992183;28;20398;-69
2021/10/19 01:45:17;;;;;;;36.63;25.73;;;;;;;;;;5002308;28;20508;-69
2021/10/19 01:47:43;;;;;;;38.63;24.67;;;;;;;;;;4993127;28;20066;-68
2021/10/19 01:50:10;;;;;;;33.00;25.77;;;;;;;;;;4992666;28;20069;-69
2021/10/19 01:52:36;;;;;;;33.97;25.05;;;;;;;;;;4994800;28;20092;-69
2021/10/19 01:55:04;;;;;;;37.15;26.73;;;;;;;;;;5006783;28;20061;-69
2021/10/19 01:57:31;;;;;;;33.42;24.25;;;;;;;;;;5005295;28;20107;-69
2021/10/19 01:59:57;;;;;;;40.28;25.75;;;;;;;;;;4989229;28;20054;-68
2021/10/19 02:02:23;;;;;;;37.58;26.50;;;;;;;;;;4982195;28;20043;-69
2021/10/19 02:04:49;;;;;;;36.17;26.25;;;;;;;;;;4989044;28;20480;-69
2021/10/19 02:07:15;;;;;;;36.97;25.58;;;;;;;;;;4989620;28;20498;-69
2021/10/19 02:09:41;;;;;;;38.58;26.30;;;;;;;;;;4983356;28;20076;-69
2021/10/19 02:12:08;;;;;;;39.40;25.55;;;;;;;;;;4981923;28;20099;-69
2021/10/19 02:14:34;;;;;;;38.88;24.90;;;;;;;;;;4985056;28;20038;-69
2021/10/19 02:17:00;;;;;;;37.00;25.65;;;;;;;;;;4986303;28;20122;-69
2021/10/19 02:19:28;;;;;;;36.50;26.33;;;;;;;;;;4982657;28;20053;-69
2021/10/19 02:21:54;;;;;;;35.17;25.23;;;;;;;;;;4985924;28;20078;-68
2021/10/19 02:24:21;;;;;;;36.92;25.20;;;;;;;;;;4983990;28;20490;-69
2021/10/19 02:26:47;;;;;;;37.05;24.73;;;;;;;;;;4988012;28;20047;-69
2021/10/19 02:29:14;;;;;;;34.88;24.60;;;;;;;;;;4987634;28;20049;-68
2021/10/19 02:31:41;;;;;;;33.38;25.52;;;;;;;;;;4972561;28;20226;-69
2021/10/19 02:34:07;;;;;;;34.47;23.98;;;;;;;;;;4983250;28;20086;-69
2021/10/19 02:36:33;;;;;;;32.45;24.38;;;;;;;;;;4988150;28;20054;-69
2021/10/19 02:39:00;;;;;;;35.78;25.95;;;;;;;;;;4982699;28;20522;-69
2021/10/19 02:41:26;;;;;;;35.33;24.15;;;;;;;;;;4982161;28;20042;-69
2021/10/19 02:43:53;;;;;;;32.95;25.27;;;;;;;;;;4988016;28;20046;-69
2021/10/19 02:46:20;;;;;;;35.35;25.05;;;;;;;;;;4982544;28;20042;-69
2021/10/19 02:48:46;;;;;;;35.83;24.75;;;;;;;;;;4997928;28;20510;-69
2021/10/19 02:51:13;;;;;;;34.80;25.02;;;;;;;;;;4979176;28;20069;-69
2021/10/19 02:53:39;;;;;;;33.80;24.20;;;;;;;;;;4981191;28;20514;-69
2021/10/19 02:56:05;;;;;;;33.50;24.52;;;;;;;;;;4989534;28;20106;-68
2021/10/19 02:58:31;;;;;;;36.10;25.05;;;;;;;;;;4984271;28;20427;-69
2021/10/19 03:00:57;;;;;;;34.33;24.98;;;;;;;;;;4978122;28;20498;-69
2021/10/19 03:03:23;;;;;;;30.92;23.83;;;;;;;;;;4965496;28;20509;-69
2021/10/19 03:05:49;;;;;;;33.08;23.90;;;;;;;;;;4968340;28;20046;-69
2021/10/19 03:08:16;;;;;;;32.05;25.13;;;;;;;;;;4973822;28;20126;-69
2021/10/19 03:10:42;;;;;;;36.38;25.42;;;;;;;;;;4973463;28;20461;-69
2021/10/19 03:13:08;;;;;;;35.40;24.83;;;;;;;;;;4969608;28;20450;-69
2021/10/19 03:15:34;;;;;;;32.75;24.50;;;;;;;;;;4967155;28;20065;-69
2021/10/19 03:18:00;;;;;;;30.20;23.15;;;;;;;;;;4976338;28;20082;-69
2021/10/19 03:20:27;;;;;;;35.22;24.75;;;;;;;;;;4958663;28;20164;-69
2021/10/19 03:22:53;;;;;;;34.50;25.50;;;;;;;;;;4970324;28;20419;-69
2021/10/19 03:25:19;;;;;;;33.42;25.15;;;;;;;;;;4972497;28;20510;-68
2021/10/19 03:27:45;;;;;;;32.20;24.02;;;;;;;;;;4974800;28;20078;-69
2021/10/19 03:30:11;;;;;;;31.98;24.08;;;;;;;;;;4958550;28;20074;-69
2021/10/19 03:32:37;;;;;;;34.05;23.00;;;;;;;;;;4971852;28;20389;-69
2021/10/19 03:35:04;;;;;;;34.92;23.70;;;;;;;;;;4973131;28;20046;-69
2021/10/19 03:37:30;;;;;;;33.70;24.30;;;;;;;;;;4971431;28;20113;-69
2021/10/19 03:39:56;;;;;;;31.70;23.20;;;;;;;;;;4964410;28;20560;-69
2021/10/19 03:42:22;;;;;;;39.85;25.42;;;;;;;;;;4970190;28;20410;-68
2021/10/19 03:44:49;;;;;;;31.63;22.95;;;;;;;;;;4980870;28;20105;-69
2021/10/19 03:47:15;;;;;;;32.53;23.60;;;;;;;;;;4979525;28;20043;-69
2021/10/19 03:49:41;;;;;;;33.05;24.05;;;;;;;;;;4991372;28;20372;-69
2021/10/19 03:52:07;;;;;;;30.42;23.80;;;;;;;;;;4983962;28;20042;-69
2021/10/19 03:54:33;;;;;;;32.78;25.42;;;;;;;;;;4980881;28;20487;-69
2021/10/19 03:56:59;;;;;;;30.13;23.05;;;;;;;;;;4976959;28;20065;-68
2021/10/19 03:59:27;;;;;;;32.78;23.92;;;;;;;;;;4979616;28;20047;-69
2021/10/19 04:01:53;;;;;;;34.35;24.33;;;;;;;;;;4987924;28;20050;-69
2021/10/19 04:04:20;;;;;;;35.92;24.88;;;;;;;;;;5000105;28;20093;-69
2021/10/19 04:06:46;;;;;;;35.20;24.50;;;;;;;;;;4988442;28;20053;-69
2021/10/19 04:09:12;;;;;;;36.03;24.15;;;;;;;;;;4998172;28;20132;-68
2021/10/19 04:11:38;;;;;;;31.55;24.00;;;;;;;;;;4982344;28;20054;-69
2021/10/19 04:14:05;;;;;;;36.95;24.48;;;;;;;;;;4987616;28;20050;-69
2021/10/19 04:16:32;;;;;;;39.88;26.30;;;;;;;;;;4985252;28;20096;-69
2021/10/19 04:18:58;;;;;;;34.72;25.58;;;;;;;;;;4982783;28;20057;-69
2021/10/19 04:21:24;;;;;;;34.47;25.70;;;;;;;;;;4983464;28;20058;-67
2021/10/19 04:23:50;;;;;;;36.30;26.92;;;;;;;;;;4979554;28;20117;-69
2021/10/19 04:26:16;;;;;;;36.83;27.05;;;;;;;;;;4988327;28;20053;-69
2021/10/19 04:28:44;;;;;;;37.92;26.38;;;;;;;;;;4987963;28;20047;-69
2021/10/19 04:31:10;;;;;;;37.40;25.77;;;;;;;;;;4984586;28;20051;-69
2021/10/19 04:33:36;;;;;;;39.80;26.75;;;;;;;;;;4983406;28;20050;-69
2021/10/19 04:36:04;;;;;;;41.55;28.38;;;;;;;;;;4977947;28;20038;-69
2021/10/19 04:38:32;;;;;;;39.28;27.42;;;;;;;;;;4982243;28;20054;-69
2021/10/19 04:40:59;;;;;;;41.35;28.33;;;;;;;;;;4982692;28;20046;-69
2021/10/19 04:43:25;;;;;;;44.60;30.02;;;;;;;;;;4986080;28;20090;-69
2021/10/19 04:45:53;;;;;;;53.55;32.60;;;;;;;;;;4983430;28;20129;-69
2021/10/19 04:48:20;;;;;;;55.55;33.40;;;;;;;;;;4988729;28;20054;-69
2021/10/19 04:50:46;;;;;;;55.40;32.97;;;;;;;;;;4965973;28;20049;-69
2021/10/19 04:53:12;;;;;;;54.63;31.42;;;;;;;;;;4988381;28;20074;-69
2021/10/19 04:55:39;;;;;;;54.13;31.95;;;;;;;;;;4989430;28;20598;-69
2021/10/19 04:58:05;;;;;;;57.63;33.95;;;;;;;;;;4990936;28;20506;-69
2021/10/19 05:00:31;;;;;;;54.75;33.75;;;;;;;;;;4979331;28;20502;-69
2021/10/19 05:02:57;;;;;;;65.68;36.33;;;;;;;;;;4995837;28;20053;-69
2021/10/19 05:05:24;;;;;;;62.13;36.30;;;;;;;;;;4993351;28;20045;-69
2021/10/19 05:07:50;;;;;;;61.38;34.88;;;;;;;;;;4998111;28;20453;-69
2021/10/19 05:10:17;;;;;;;60.33;36.58;;;;;;;;;;5009467;28;20520;-69
2021/10/19 05:12:43;;;;;;;66.18;37.00;;;;;;;;;;5008381;28;20044;-69
2021/10/19 05:15:09;;;;;;;68.30;38.22;;;;;;;;;;4996224;28;20455;-69
2021/10/19 05:17:36;;;;;;;80.85;41.80;;;;;;;;;;4994272;28;20442;-69
2021/10/19 05:20:02;;;;;;;83.57;42.13;;;;;;;;;;4993159;28;20354;-69
2021/10/19 05:22:28;;;;;;;80.68;41.80;;;;;;;;;;4988608;28;20065;-69
2021/10/19 05:24:54;;;;;;;86.65;43.08;;;;;;;;;;4992565;28;20099;-69
2021/10/19 05:27:21;;;;;;;90.03;45.45;;;;;;;;;;4996069;28;20354;-69
2021/10/19 05:29:47;;;;;;;94.22;45.53;;;;;;;;;;5005931;28;20129;-68
2021/10/19 05:32:13;;;;;;;98.38;46.38;;;;;;;;;;4986590;28;20121;-69
2021/10/19 05:34:39;;;;;;;100.47;46.22;;;;;;;;;;5005037;28;20126;-69
2021/10/19 05:37:05;;;;;;;102.47;48.88;;;;;;;;;;4996797;28;20136;-69
2021/10/19 05:39:32;;;;;;;109.28;50.90;;;;;;;;;;4989876;28;20463;-69
2021/10/19 05:41:59;;;;;;;109.35;49.92;;;;;;;;;;4992716;28;20191;-69
2021/10/19 05:44:26;;;;;;;120.18;52.03;;;;;;;;;;4993263;28;20061;-69
2021/10/19 05:46:53;;;;;;;121.53;53.60;;;;;;;;;;4992324;28;20054;-69
2021/10/19 05:49:19;;;;;;;115.47;50.88;;;;;;;;;;5002270;28;20046;-69
2021/10/19 05:51:46;;;;;;;116.80;52.03;;;;;;;;;;4992622;28;20132;-69
2021/10/19 05:54:13;;;;;;;119.10;51.20;;;;;;;;;;5002030;28;20062;-70
2021/10/19 05:56:40;;;;;;;118.18;50.97;;;;;;;;;;4974745;28;20050;-70
2021/10/19 05:59:06;;;;;;;120.35;51.95;;;;;;;;;;4986780;28;20045;-69
2021/10/19 06:01:33;;;;;;;114.32;52.10;;;;;;;;;;4987316;28;20145;-69
2021/10/19 06:03:59;;;;;;;122.82;50.97;;;;;;;;;;4988412;28;20132;-70
2021/10/19 06:06:25;;;;;;;120.18;52.35;;;;;;;;;;4993868;28;20136;-69
2021/10/19 06:08:51;;;;;;;123.85;53.17;;;;;;;;;;5008959;28;20041;-70
2021/10/19 06:11:18;;;;;;;129.18;54.53;;;;;;;;;;5010925;28;20038;-70
2021/10/19 06:13:46;;;;;;;125.18;53.28;;;;;;;;;;5009301;28;20053;-70
2021/10/19 06:16:12;;;;;;;133.07;52.95;;;;;;;;;;4988278;28;20077;-70
2021/10/19 06:18:38;;;;;;;129.45;55.63;;;;;;;;;;4992226;28;20490;-70
2021/10/19 06:21:04;;;;;;;127.63;55.13;;;;;;;;;;4972276;28;20392;-67
2021/10/19 06:23:30;;;;;;;139.27;56.35;;;;;;;;;;4999676;28;20053;-67
2021/10/19 06:25:56;;;;;;;140.93;56.95;;;;;;;;;;4991789;28;20073;-67
2021/10/19 06:28:23;;;;;;;154.82;58.90;;;;;;;;;;4993540;28;20068;-67
2021/10/19 06:30:49;;;;;;;154.90;58.38;;;;;;;;;;5002987;28;20108;-67
2021/10/19 06:33:15;;;;;;;149.50;57.15;;;;;;;;;;4993722;28;20543;-67
2021/10/19 06:35:41;;;;;;;156.10;57.25;;;;;;;;;;5003445;28;20104;-67
2021/10/19 06:38:08;;;;;;;161.75;59.33;;;;;;;;;;4993277;28;20042;-67
2021/10/19 06:40:34;;;;;;;151.98;58.53;;;;;;;;;;4991149;28;20096;-68
2021/10/19 06:43:00;;;;;;;155.82;58.92;;;;;;;;;;5007050;28;20046;-67
2021/10/19 06:45:26;;;;;;;160.85;59.35;;;;;;;;;;4989879;28;20356;-67
2021/10/19 06:47:53;;;;;;;147.65;58.17;;;;;;;;;;5000845;28;20050;-67
2021/10/19 06:50:19;;;;;;;165.55;61.47;;;;;;;;;;4992060;28;20232;-66
2021/10/19 06:52:45;;;;;;;168.68;62.65;;;;;;;;;;4992827;28;20121;-67
2021/10/19 06:55:11;;;;;;;163.20;62.45;;;;;;;;;;5000034;28;20132;-66
2021/10/19 06:57:39;;;;;;;149.05;59.97;;;;;;;;;;4994380;28;20046;-68
2021/10/19 07:00:06;;;;;;;170.20;61.38;;;;;;;;;;4997885;28;20133;-68
2021/10/19 07:02:33;;;;;;;149.02;61.00;;;;;;;;;;4993634;28;20654;-77
2021/10/19 07:05:00;;;;;;;146.10;60.35;;;;;;;;;;4990454;28;20516;-68
2021/10/19 07:07:26;;;;;;;144.32;58.70;;;;;;;;;;5000407;28;20114;-68
2021/10/19 07:09:52;;;;;;;149.45;60.67;;;;;;;;;;5006537;28;20405;-69
2021/10/19 07:12:18;;;;;;;153.52;61.65;;;;;;;;;;4992951;28;20070;-70
2021/10/19 07:14:44;;;;;;;131.98;58.55;;;;;;;;;;4997006;28;20049;-69
2021/10/19 07:17:10;;;;;;;129.45;55.83;;;;;;;;;;5000790;28;20041;-69
2021/10/19 07:19:38;;;;;;;134.45;57.00;;;;;;;;;;5002168;28;20057;-69
2021/10/19 07:22:05;;;;;;;130.20;54.63;;;;;;;;;;5000543;28;20049;-69
2021/10/19 07:24:31;;;;;;;125.25;54.83;;;;;;;;;;5011706;28;20132;-69
2021/10/19 07:26:57;;;;;;;127.25;55.20;;;;;;;;;;4997594;28;20042;-69
2021/10/19 07:29:23;;;;;;;138.52;57.22;;;;;;;;;;4997418;28;20071;-69
2021/10/19 07:31:49;;;;;;;134.55;57.05;;;;;;;;;;5010543;28;20042;-69
2021/10/19 07:34:16;;;;;;;111.60;53.22;;;;;;;;;;4999085;28;20037;-69
2021/10/19 07:36:42;;;;;;;130.30;54.17;;;;;;;;;;4999805;28;20037;-69
2021/10/19 07:39:08;;;;;;;123.03;53.63;;;;;;;;;;4997137;28;20544;-69
2021/10/19 07:41:36;;;;;;;117.25;52.25;;;;;;;;;;4994250;28;21326;-69
2021/10/19 07:44:03;;;;;;;124.00;53.97;;;;;;;;;;4999903;28;20050;-69
2021/10/19 07:46:29;;;;;;;124.45;53.00;;;;;;;;;;5010107;28;20486;-69
2021/10/19 07:48:55;;;;;;;132.43;55.35;;;;;;;;;;5010986;28;20054;-69
2021/10/19 07:51:22;;;;;;;128.00;51.75;;;;;;;;;;4996909;28;20053;-69
2021/10/19 07:53:48;;;;;;;131.88;54.08;;;;;;;;;;4998865;28;20057;-69
2021/10/19 07:56:15;;;;;;;119.22;51.90;;;;;;;;;;5011028;28;20052;-69
2021/10/19 07:58:42;;;;;;;106.45;48.13;;;;;;;;;;4994992;28;20042;-69
2021/10/19 08:01:08;;;;;;;113.20;50.28;;;;;;;;;;4989573;28;20064;-69
2021/10/19 08:03:34;;;;;;;111.85;49.72;;;;;;;;;;4990080;28;20047;-69
2021/10/19 08:06:00;;;;;;;99.00;46.97;;;;;;;;;;4990942;28;20530;-69
2021/10/19 08:08:27;;;;;;;99.35;48.72;;;;;;;;;;4989225;28;20041;-69
2021/10/19 08:10:53;;;;;;;103.55;48.15;;;;;;;;;;4987361;28;20042;-69
2021/10/19 08:13:19;;;;;;;96.68;46.45;;;;;;;;;;4989195;28;20053;-70
2021/10/19 08:15:46;;;;;;;98.95;46.80;;;;;;;;;;4989290;28;20050;-69
2021/10/19 08:18:12;;;;;;;92.70;46.85;;;;;;;;;;4989396;28;20042;-69
2021/10/19 08:20:39;;;;;;;90.53;44.78;;;;;;;;;;4974352;28;20081;-69
2021/10/19 08:23:06;;;;;;;92.95;44.03;;;;;;;;;;4990246;28;20126;-69
2021/10/19 08:25:33;;;;;;;90.32;44.42;;;;;;;;;;4991656;28;20041;-69
2021/10/19 08:28:00;;;;;;;81.45;44.50;;;;;;;;;;4995776;28;20125;-69
2021/10/19 08:30:27;;;;;;;86.47;43.75;;;;;;;;;;5012402;28;20081;-69
2021/10/19 08:32:53;;;;;;;89.68;43.67;;;;;;;;;;4995374;28;20086;-69
2021/10/19 08:35:22;;;;;;;82.45;44.35;;;;;;;;;;4995570;28;20057;-69
2021/10/19 08:37:49;;;;;;;82.60;42.70;;;;;;;;;;4997517;28;20065;-70
2021/10/19 08:40:16;;;;;;;78.45;42.33;;;;;;;;;;4996445;28;20057;-69
2021/10/19 08:42:44;;;;;;;79.80;41.30;;;;;;;;;;4994957;28;20101;-69
2021/10/19 08:45:13;;;;;;;78.47;41.97;;;;;;;;;;4979232;28;20054;-69
2021/10/19 08:47:40;;;;;;;77.88;41.40;;;;;;;;;;4997509;28;20042;-70
2021/10/19 08:50:06;;;;;;;83.75;42.50;;;;;;;;;;4995554;28;20046;-70
2021/10/19 08:52:33;;;;;;;87.18;43.58;;;;;;;;;;5011763;28;20046;-71
2021/10/19 08:54:59;;;;;;;84.50;42.63;;;;;;;;;;4980011;28;20458;-70
2021/10/19 08:57:25;;;;;;;83.97;41.55;;;;;;;;;;4995579;28;20448;-70
2021/10/19 08:59:51;;;;;;;91.55;42.45;;;;;;;;;;4996725;28;20046;-70
2021/10/19 09:02:17;;;;;;;88.85;43.30;;;;;;;;;;5007184;28;20046;-70
2021/10/19 09:04:44;;;;;;;92.45;42.08;;;;;;;;;;4987464;28;20052;-70
2021/10/19 09:07:10;;;;;;;95.85;42.13;;;;;;;;;;5028667;28;20515;-70
2021/10/19 09:09:37;;;;;;;92.22;43.17;;;;;;;;;;5029838;28;20523;-70
2021/10/19 09:12:04;;;;;;;106.50;45.08;;;;;;;;;;5011407;28;20053;-70
2021/10/19 09:14:31;;;;;;;101.10;45.00;;;;;;;;;;5000513;28;20065;-70
2021/10/19 09:17:00;;;;;;;94.15;43.33;;;;;;;;;;4983419;28;20046;-70
2021/10/19 09:19:26;;;;;;;102.88;44.83;;;;;;;;;;5003003;28;20052;-70
2021/10/19 09:21:54;;;;;;;96.90;43.30;;;;;;;;;;5005928;28;20054;-70
2021/10/19 09:24:22;;;;;;;87.40;42.22;;;;;;;;;;5006803;28;20073;-71
2021/10/19 09:26:50;;;;;;;97.13;42.35;;;;;;;;;;4999978;28;20083;-70
2021/10/19 09:29:17;;;;;;;97.57;41.88;;;;;;;;;;5017132;28;20555;-70
2021/10/19 09:31:44;;;;;;;89.68;41.00;;;;;;;;;;5007428;28;20041;-70
2021/10/19 09:34:12;;;;;;;100.75;42.17;;;;;;;;;;5005220;28;20461;-71
2021/10/19 09:36:38;;;;;;;91.70;40.30;;;;;;;;;;5011014;28;20116;-70
2021/10/19 09:39:04;;;;;;;85.72;39.97;;;;;;;;;;5018363;28;20100;-70
2021/10/19 09:41:40;;;;;;;86.30;40.25;;;;;;;;;;4996620;28;20129;-70
2021/10/19 09:44:11;;;;;;;92.40;39.85;;;;;;;;;;5020022;28;20060;-70
2021/10/19 09:46:37;;;;;;;95.68;40.00;;;;;;;;;;4992029;28;20048;-70
2021/10/19 09:49:03;;;;;;;98.93;40.80;;;;;;;;;;5001334;28;20085;-70
2021/10/19 09:51:30;;;;;;;80.82;38.22;;;;;;;;;;5003989;28;20518;-70
2021/10/19 09:53:57;;;;;;;102.10;41.13;;;;;;;;;;4995838;28;20117;-70
2021/10/19 09:56:23;;;;;;;92.88;39.95;;;;;;;;;;4996620;28;20034;-70
2021/10/19 09:58:49;;;;;;;83.72;38.90;;;;;;;;;;5005119;28;20089;-70
2021/10/19 10:01:15;;;;;;;92.25;39.97;;;;;;;;;;4995417;28;20052;-70
2021/10/19 10:03:44;;;;;;;104.65;41.58;;;;;;;;;;4997741;28;20133;-70
2021/10/19 10:06:10;;;;;;;96.18;39.95;;;;;;;;;;4980097;28;20046;-70
2021/10/19 10:08:38;;;;;;;97.25;40.78;;;;;;;;;;5001741;28;20042;-70
2021/10/19 10:11:05;;;;;;;91.20;38.03;;;;;;;;;;5012878;28;20445;-70
2021/10/19 10:13:33;;;;;;;82.70;38.17;;;;;;;;;;5012084;28;20107;-69
2021/10/19 10:16:07;;;;;;;78.93;35.53;;;;;;;;;;5013445;28;20470;-69
2021/10/19 10:18:34;;;;;;;79.15;37.15;;;;;;;;;;5012612;28;20086;-69
2021/10/19 10:21:11;;;;;;;69.55;33.30;;;;;;;;;;5012197;28;20042;-69
2021/10/19 10:23:40;;;;;;;69.80;31.58;;;;;;;;;;5012715;28;20457;-68
2021/10/19 10:26:10;;;;;;;63.88;32.45;;;;;;;;;;4995994;28;20068;-69
2021/10/19 10:28:36;;;;;;;56.58;28.83;;;;;;;;;;5011882;28;20058;-69
2021/10/19 10:31:04;;;;;;;52.75;28.38;;;;;;;;;;5004116;28;20579;-68
2021/10/19 10:33:32;;;;;;;59.25;29.08;;;;;;;;;;5007602;28;20557;-68
2021/10/19 10:36:00;;;;;;;48.83;27.15;;;;;;;;;;4997237;28;20513;-85
2021/10/19 10:38:27;;;;;;;38.22;24.13;;;;;;;;;;4997099;28;20127;-86
2021/10/19 10:40:56;;;;;;;40.20;24.63;;;;;;;;;;4995239;28;20176;-87
2021/10/19 10:43:25;;;;;;;39.88;23.58;;;;;;;;;;4995004;28;20732;-85
2021/10/19 10:46:06;;;;;;;43.03;24.20;;;;;;;;;;4995624;28;20123;-85
2021/10/19 10:48:33;;;;;;;39.40;23.52;;;;;;;;;;4978279;28;20519;-85
2021/10/19 10:50:59;;;;;;;37.75;23.42;;;;;;;;;;5002305;28;20049;-85
2021/10/19 10:53:33;;;;;;;34.92;22.00;;;;;;;;;;5012540;28;20041;-87
2021/10/19 10:55:59;;;;;;;36.63;22.10;;;;;;;;;;5011193;28;20117;-85
2021/10/19 10:58:26;;;;;;;37.55;21.15;;;;;;;;;;4995340;28;20424;-86
2021/10/19 11:00:53;;;;;;;36.67;21.95;;;;;;;;;;5001830;28;20049;-85
2021/10/19 11:03:20;;;;;;;35.33;21.70;;;;;;;;;;4994893;28;20042;-83
2021/10/19 11:05:58;;;;;;;38.17;21.98;;;;;;;;;;4978896;28;20046;-86
2021/10/19 11:08:26;;;;;;;34.53;21.25;;;;;;;;;;4994681;28;20030;-85
2021/10/19 11:11:02;;;;;;;29.88;19.42;;;;;;;;;;5006867;28;20045;-86
2021/10/19 11:13:29;;;;;;;30.50;19.67;;;;;;;;;;5004744;28;20504;-87
2021/10/19 11:15:56;;;;;;;24.17;17.75;;;;;;;;;;5011752;28;20065;-87
2021/10/19 11:18:25;;;;;;;26.02;17.17;;;;;;;;;;4997343;28;20049;-87
2021/10/19 11:20:54;;;;;;;23.25;15.82;;;;;;;;;;5004438;28;20519;-88
2021/10/19 11:23:20;;;;;;;22.63;15.70;;;;;;;;;;5012088;28;20037;-85
2021/10/19 11:25:47;;;;;;;25.08;17.02;;;;;;;;;;5010914;28;20466;-84
2021/10/19 11:28:13;;;;;;;26.27;16.88;;;;;;;;;;5007998;28;20052;-84
2021/10/19 11:30:39;;;;;;;21.58;14.50;;;;;;;;;;5010536;28;20490;-78
2021/10/19 11:33:07;;;;;;;25.40;15.40;;;;;;;;;;4991498;28;20053;-83
2021/10/19 11:35:34;;;;;;;25.88;14.85;;;;;;;;;;4977413;28;20096;-70
2021/10/19 11:38:00;;;;;;;28.42;16.73;;;;;;;;;;4993132;28;20132;-71
2021/10/19 11:40:26;;;;;;;23.15;15.13;;;;;;;;;;4988083;28;20046;-71
2021/10/19 11:42:53;;;;;;;24.13;14.48;;;;;;;;;;4985083;28;20042;-71
2021/10/19 11:45:20;;;;;;;21.70;13.23;;;;;;;;;;5000271;28;20497;-71
2021/10/19 11:47:52;;;;;;;23.08;13.75;;;;;;;;;;4996016;28;20118;-71
2021/10/19 11:50:21;;;;;;;19.02;11.95;;;;;;;;;;4995208;28;20386;-71
2021/10/19 11:52:48;;;;;;;19.40;11.75;;;;;;;;;;4995343;28;20140;-71
2021/10/19 11:55:16;;;;;;;22.05;13.02;;;;;;;;;;5001752;28;20541;-71
2021/10/19 11:57:42;;;;;;;18.88;11.82;;;;;;;;;;4999602;28;20033;-71
2021/10/19 12:00:09;;;;;;;21.98;12.27;;;;;;;;;;5001072;28;20100;-71
2021/10/19 12:02:35;;;;;;;26.58;13.35;;;;;;;;;;4992388;28;20430;-71
2021/10/19 12:05:06;;;;;;;21.83;13.73;;;;;;;;;;4998310;28;20057;-71
2021/10/19 12:07:32;;;;;;;24.83;13.43;;;;;;;;;;4998204;28;20042;-71
2021/10/19 12:10:09;;;;;;;24.52;14.25;;;;;;;;;;4987028;28;20096;-71
2021/10/19 12:12:35;;;;;;;26.90;14.50;;;;;;;;;;4989379;28;20101;-71
2021/10/19 12:15:01;;;;;;;26.00;14.20;;;;;;;;;;4999977;28;20078;-71
2021/10/19 12:17:27;;;;;;;25.42;14.23;;;;;;;;;;4995014;28;20034;-71
2021/10/19 12:19:54;;;;;;;23.52;13.55;;;;;;;;;;4989025;28;20125;-71
2021/10/19 12:22:20;;;;;;;22.42;13.27;;;;;;;;;;4994493;28;20514;-71
2021/10/19 12:24:47;;;;;;;25.38;14.25;;;;;;;;;;4999003;28;20085;-71
2021/10/19 12:27:15;;;;;;;20.90;13.25;;;;;;;;;;4996745;28;20601;-71
2021/10/19 12:29:42;;;;;;;24.48;14.02;;;;;;;;;;4987623;28;20434;-71
2021/10/19 12:32:08;;;;;;;23.63;13.15;;;;;;;;;;4988445;28;20428;-71
2021/10/19 12:34:37;;;;;;;25.92;14.15;;;;;;;;;;4997646;28;20417;-71
2021/10/19 12:37:06;;;;;;;23.73;13.85;;;;;;;;;;5003852;28;20076;-71
2021/10/19 12:39:37;;;;;;;24.63;13.05;;;;;;;;;;4989744;28;20120;-71
2021/10/19 12:42:04;;;;;;;28.60;14.63;;;;;;;;;;4985210;28;20046;-71
2021/10/19 12:44:30;;;;;;;23.88;13.55;;;;;;;;;;4988317;28;20089;-71
2021/10/19 12:46:58;;;;;;;23.75;12.93;;;;;;;;;;4987321;28;20054;-71
2021/10/19 12:49:24;;;;;;;18.73;11.70;;;;;;;;;;4976024;28;20046;-71
2021/10/19 12:51:50;;;;;;;20.90;12.30;;;;;;;;;;4999939;28;20400;-71
2021/10/19 12:54:17;;;;;;;21.27;12.52;;;;;;;;;;5006340;28;20041;-71
2021/10/19 12:56:43;;;;;;;25.80;13.13;;;;;;;;;;4993698;28;20042;-71
2021/10/19 12:59:09;;;;;;;21.63;11.95;;;;;;;;;;5003606;28;20072;-71
2021/10/19 13:01:36;;;;;;;22.15;13.23;;;;;;;;;;4993587;28;20054;-71
2021/10/19 13:04:02;;;;;;;24.15;15.18;;;;;;;;;;4990074;28;20053;-71
2021/10/19 13:06:30;;;;;;;25.73;14.82;;;;;;;;;;5003953;28;20417;-70
2021/10/19 13:08:58;;;;;;;23.85;14.35;;;;;;;;;;5002510;28;20948;-71
2021/10/19 13:11:25;;;;;;;28.70;15.82;;;;;;;;;;5005706;28;20077;-71
2021/10/19 13:13:51;;;;;;;23.83;14.57;;;;;;;;;;4994263;28;20060;-71
2021/10/19 13:16:17;;;;;;;30.20;15.73;;;;;;;;;;5007244;28;20057;-71
2021/10/19 13:18:44;;;;;;;25.60;15.52;;;;;;;;;;5003333;28;20037;-71
2021/10/19 13:21:12;;;;;;;31.10;16.77;;;;;;;;;;4995590;28;20521;-71
2021/10/19 13:23:38;;;;;;;33.38;17.70;;;;;;;;;;4988053;28;20057;-71
2021/10/19 13:26:05;;;;;;;34.85;17.65;;;;;;;;;;4993234;28;20125;-71
2021/10/19 13:28:31;;;;;;;35.35;17.55;;;;;;;;;;4994490;28;20046;-71
2021/10/19 13:30:58;;;;;;;41.72;18.35;;;;;;;;;;4992026;28;20038;-72
2021/10/19 13:33:24;;;;;;;44.83;20.40;;;;;;;;;;5007098;28;21214;-71
2021/10/19 13:35:50;;;;;;;45.67;21.52;;;;;;;;;;4990589;28;20099;-71
2021/10/19 13:38:16;;;;;;;52.00;23.50;;;;;;;;;;5003499;28;20188;-70
2021/10/19 13:40:45;;;;;;;62.08;24.90;;;;;;;;;;4993890;28;20046;-71
2021/10/19 13:43:11;;;;;;;71.40;28.65;;;;;;;;;;4994998;28;20142;-71
2021/10/19 13:45:38;;;;;;;81.05;29.65;;;;;;;;;;4999242;28;20038;-71
2021/10/19 13:48:08;;;;;;;83.32;29.00;;;;;;;;;;4990789;28;20178;-71
2021/10/19 13:50:34;;;;;;;71.13;29.25;;;;;;;;;;4993177;28;20042;-70
2021/10/19 13:53:01;;;;;;;59.13;27.48;;;;;;;;;;4998666;28;20386;-70
2021/10/19 13:55:27;;;;;;;56.25;26.27;;;;;;;;;;4988064;28;20056;-72
2021/10/19 13:57:53;;;;;;;55.70;25.80;;;;;;;;;;4987178;28;20061;-71
2021/10/19 14:00:19;;;;;;;63.20;28.38;;;;;;;;;;5002157;28;20046;-70
2021/10/19 14:02:46;;;;;;;49.08;23.95;;;;;;;;;;5007441;28;20050;-71
2021/10/19 14:05:12;;;;;;;47.88;22.83;;;;;;;;;;4993374;28;20078;-71
2021/10/19 14:07:38;;;;;;;45.50;22.80;;;;;;;;;;4997442;28;20077;-70
2021/10/19 14:10:06;;;;;;;42.80;22.40;;;;;;;;;;5009667;28;20042;-70